Ulm, MT (59485)

9:18 PM MDT on October 24, 2014 (GMT -0600)
Great Falls International | Change Station
CLOSE
Current Station
Airport
Location: Great Falls,
Elevation: 3658 ft
Nearby Weather Stations

Elev 3658 ft 47.47 °N, 111.38 °W | Updated 25 minutes ago

Overcast
Overcast
47 °F
Feels Like 47 °F
N
0
Wind Variable Wind from North

Today
High -- | Low -- °F
--% Chance of Precip.
Yesterday
High -- | Low -- °F
Precip. -- in
7:57 AM 6:21 PM
New Moon, 2% visible
Pressure 30.10 in
Visibility 10.0 miles
Clouds Overcast 10000 ft
Dew Point 38 °F
Humidity 71%
Rainfall 0.00 in
Snow Depth Not available.
UV 0 out of 12
Pollen 3.20 out of 12
Air Quality Not available.
Flu Activity No Activity
METAR KGTF 250253Z 00000KT 10SM OVC100 08/03 A3006 RMK AO2 SLP192 T00830033 50008

More Conditions Fewer Conditions

Pressure 30.10 in
Visibility 10.0 miles
Clouds Overcast 10000 ft
Dew Point 38 °F
Humidity 71%
Rainfall 0.00 in
Snow Depth Not available.
UV 0 out of 12
Pollen 3.20 out of 12
Air Quality Not available.
Flu Activity No Activity
METAR KGTF 250253Z 00000KT 10SM OVC100 08/03 A3006 RMK AO2 SLP192 T00830033 50008

More Conditions Fewer Conditions

10-Day Weather Forecast

Almanac

Astronomy

Oct. 24, 2014 Rise Set
Actual Time 7:57 AM MDT 6:21 PM MDT
Civil Twilight 7:26 AM MDT 6:53 PM MDT
Nautical Twilight 6:50 AM MDT 7:29 PM MDT
Astronomical Twilight 6:15 AM MDT 8:04 PM MDT
Moon 8:43 AM MDT (10/24) 7:00 PM MDT (10/24)
Length of Visible Light 11h 26m
Length of Day
10h 23m
Tomorrow will be 3m 11s shorter.
New Moon, 2% of the Moon is Illuminated
Today
New Moon
Oct 30
First Quarter
Nov 6
Full
Nov 14
Last Quarter
Nov 22
New

Today's Extremes

State Highs State Lows

Community

WunderPhotos

Upload Photos

1,764,763 photos uploaded!

Nearby

Snow Depth

Station Depth Elevation
Stringer Creek 0 in 6550 ft
Onion Park 0 in 7410 ft
Copper Bottom 0 in 5200 ft
Deadman Creek 0 in 6450 ft
Pickfoot Creek 0 in 6650 ft

Earthquake Activity

City Distance Mag. Time & Date
No recent earthquake activity has been reported nearby.
Minimum magnitude displayed is 2.5.

Coastal Water Temperatures

Place Temperature
No Stations Reporting

Nearby Weather Stations